Deer Valley, Utah
Current Conditions -  °F | °C
As of 9:15 PM on Friday 19 Dec 2014 (Local Time) from K36U Reporting Station
Overcast Overcast  
Wind Chill: 32°   Ceiling: 9000
Heat Index: 32°   Visibility: 10mi
Dew Point: 25°   Wind: 0mph
Humidity: 75%   Direction: NA
Pressure: 30.13"   Gusts: NA
Location:  40.6558°N, 111.503°W
Report Text: K36U 200415Z AUTO 00000KT 10SM SCT060 SCT070 OVC090 00/M04 A3013 RMK AO2
Loading
Personal Weather Stations






























Interactive Weather Map New forecast layout! Learn more

10-Day Weather Forecast

Advertisements
Track Severe Weather on mobile